createdAt,value
2018-12-24T00:01:43.696Z,95.20
2018-12-24T00:04:10.103Z,95.40
2018-12-24T00:06:36.527Z,96.50
2018-12-24T00:09:04.635Z,97.60
2018-12-24T00:11:31.029Z,99.30
2018-12-24T00:13:57.431Z,99.90
2018-12-24T00:16:23.854Z,99.90
2018-12-24T00:18:50.258Z,99.90
2018-12-24T00:21:16.653Z,98.90
2018-12-24T00:23:43.080Z,98.70
2018-12-24T00:26:09.564Z,98.10
2018-12-24T00:28:35.957Z,98.40
2018-12-24T00:31:02.569Z,98.10
2018-12-24T00:33:28.938Z,97.80
2018-12-24T00:35:55.337Z,97.80
2018-12-24T00:38:21.741Z,97.40
2018-12-24T00:40:48.141Z,97.50
2018-12-24T00:43:14.545Z,97.40
2018-12-24T00:45:40.936Z,97.40
2018-12-24T00:48:07.336Z,97.20
2018-12-24T00:50:33.740Z,97.00
2018-12-24T00:53:00.135Z,96.80
2018-12-24T00:55:26.529Z,96.80
2018-12-24T00:57:52.896Z,96.60
2018-12-24T01:00:19.408Z,96.50
2018-12-24T01:02:45.793Z,96.30
2018-12-24T01:05:12.372Z,96.40
2018-12-24T01:07:38.788Z,96.30
2018-12-24T01:10:05.405Z,96.10
2018-12-24T01:12:31.899Z,96.40
2018-12-24T01:14:58.313Z,96.40
2018-12-24T01:17:24.729Z,96.80
2018-12-24T01:19:51.107Z,96.70
2018-12-24T01:22:17.521Z,96.90
2018-12-24T01:24:43.899Z,96.80
2018-12-24T01:27:10.321Z,96.90
2018-12-24T01:29:36.706Z,96.80
2018-12-24T01:32:03.089Z,96.70
2018-12-24T01:34:29.509Z,96.70
2018-12-24T01:36:55.887Z,97.10
2018-12-24T01:39:22.304Z,96.90
2018-12-24T01:41:48.722Z,96.90
2018-12-24T01:44:15.206Z,97.00
2018-12-24T01:46:41.595Z,96.90
2018-12-24T01:49:07.993Z,96.90
2018-12-24T01:51:34.371Z,97.00
2018-12-24T01:54:00.899Z,97.00
2018-12-24T01:56:27.264Z,97.30
2018-12-24T01:58:53.641Z,97.50
2018-12-24T02:01:20.057Z,97.30
2018-12-24T02:03:46.436Z,97.50
2018-12-24T02:06:12.848Z,97.40
2018-12-24T02:08:39.242Z,97.20
2018-12-24T02:11:05.617Z,97.20
2018-12-24T02:13:32.069Z,97.30
2018-12-24T02:15:58.429Z,97.50
2018-12-24T02:18:24.801Z,95.20
2018-12-24T02:20:51.220Z,92.70
2018-12-24T02:23:17.615Z,94.70
2018-12-24T02:25:44.023Z,95.30
2018-12-24T02:28:10.441Z,96.20
2018-12-24T02:30:36.814Z,96.90
2018-12-24T02:33:03.217Z,97.20
2018-12-24T02:35:29.615Z,97.50
2018-12-24T02:37:56.007Z,97.90
2018-12-24T02:40:22.418Z,98.30
2018-12-24T02:42:52.515Z,98.60
2018-12-24T02:45:17.231Z,98.20
2018-12-24T02:47:43.618Z,98.20
2018-12-24T02:50:10.000Z,98.10
2018-12-24T02:52:36.423Z,98.20
2018-12-24T02:55:03.008Z,98.30
2018-12-24T02:57:29.391Z,97.40
2018-12-24T02:59:56.014Z,96.90
2018-12-24T03:02:22.408Z,97.10
2018-12-24T03:04:49.043Z,97.50
2018-12-24T03:07:15.429Z,97.30
2018-12-24T03:09:41.830Z,97.00
2018-12-24T03:12:08.202Z,96.90
2018-12-24T03:14:34.620Z,97.40
2018-12-24T03:17:01.043Z,97.10
2018-12-24T03:19:27.449Z,97.40
2018-12-24T03:21:53.833Z,96.70
2018-12-24T03:24:20.205Z,96.40
2018-12-24T03:26:46.609Z,96.10
2018-12-24T03:29:12.985Z,96.30
2018-12-24T03:31:39.399Z,96.20
2018-12-24T03:34:05.766Z,96.10
2018-12-24T03:36:32.159Z,96.10
2018-12-24T03:38:58.557Z,96.30
2018-12-24T03:41:24.943Z,96.10
2018-12-24T03:43:51.323Z,95.70
2018-12-24T03:46:17.712Z,95.90
2018-12-24T03:48:44.129Z,95.80
2018-12-24T03:51:10.502Z,96.00
2018-12-24T03:53:36.880Z,96.00
2018-12-24T03:56:03.393Z,96.10
2018-12-24T03:58:29.799Z,96.40
2018-12-24T04:00:56.223Z,96.00
2018-12-24T04:03:22.587Z,96.40
2018-12-24T04:05:48.983Z,96.20
2018-12-24T04:08:15.369Z,96.30
2018-12-24T04:10:41.745Z,95.90
2018-12-24T04:13:08.185Z,95.90
2018-12-24T04:15:34.666Z,95.20
2018-12-24T04:18:01.054Z,95.40
2018-12-24T04:20:27.457Z,95.50
2018-12-24T04:22:53.836Z,95.40
2018-12-24T04:25:20.239Z,95.70
2018-12-24T04:27:46.621Z,95.70
2018-12-24T04:30:12.996Z,95.60
2018-12-24T04:32:39.414Z,95.40
2018-12-24T04:35:05.789Z,95.30
2018-12-24T04:37:32.173Z,95.40
2018-12-24T04:39:58.603Z,95.40
2018-12-24T04:42:24.965Z,95.50
2018-12-24T04:44:51.470Z,95.10
2018-12-24T04:47:17.860Z,95.40
2018-12-24T04:49:44.228Z,94.80
2018-12-24T04:52:10.665Z,94.90
2018-12-24T04:54:37.056Z,95.10
2018-12-24T04:57:03.424Z,94.60
2018-12-24T04:59:29.825Z,94.90
2018-12-24T05:01:56.196Z,94.90
2018-12-24T05:04:22.572Z,95.10
2018-12-24T05:06:48.984Z,94.80
2018-12-24T05:09:15.452Z,95.10
2018-12-24T05:11:41.993Z,95.20
2018-12-24T05:14:08.399Z,94.80
2018-12-24T05:16:34.770Z,94.70
2018-12-24T05:19:01.155Z,94.90
2018-12-24T05:21:27.567Z,94.80
2018-12-24T05:23:53.964Z,94.60
2018-12-24T05:26:20.351Z,94.80
2018-12-24T05:28:46.760Z,95.00
2018-12-24T05:31:13.137Z,94.90
2018-12-24T05:33:39.536Z,95.20
2018-12-24T05:36:05.940Z,95.10
2018-12-24T05:38:32.325Z,94.70
2018-12-24T05:40:58.702Z,95.40
2018-12-24T05:43:25.111Z,95.20
2018-12-24T05:45:51.490Z,94.90
2018-12-24T05:48:17.862Z,94.80
2018-12-24T05:50:44.277Z,94.80
2018-12-24T05:53:10.671Z,94.80
2018-12-24T05:55:37.050Z,95.10
2018-12-24T05:58:03.569Z,95.20
2018-12-24T06:00:29.949Z,95.30
2018-12-24T06:02:56.323Z,95.40
2018-12-24T06:05:22.736Z,95.60
2018-12-24T06:07:49.117Z,95.10
2018-12-24T06:10:15.629Z,95.20
2018-12-24T06:12:42.076Z,94.90
2018-12-24T06:15:08.456Z,94.70
2018-12-24T06:17:34.975Z,94.60
2018-12-24T06:20:01.352Z,94.70
2018-12-24T06:22:27.769Z,95.00
2018-12-24T06:24:54.160Z,95.10
2018-12-24T06:27:20.554Z,94.80
2018-12-24T06:29:46.937Z,94.90
2018-12-24T06:32:13.321Z,95.00
2018-12-24T06:34:39.836Z,95.10
2018-12-24T06:37:06.209Z,95.20
2018-12-24T06:39:32.627Z,95.10
2018-12-24T06:41:59.013Z,94.90
2018-12-24T06:44:25.530Z,95.00
2018-12-24T06:46:51.900Z,95.10
2018-12-24T06:49:18.285Z,95.40
2018-12-24T06:51:44.690Z,95.30
2018-12-24T06:54:11.060Z,95.10
2018-12-24T06:56:37.471Z,95.10
2018-12-24T06:59:05.343Z,95.00
2018-12-24T07:01:31.827Z,95.00
2018-12-24T07:03:58.231Z,94.90
2018-12-24T07:06:24.607Z,95.00
2018-12-24T07:08:51.022Z,94.90
2018-12-24T07:11:17.408Z,95.10
2018-12-24T07:13:43.801Z,94.90
2018-12-24T07:16:10.269Z,95.10
2018-12-24T07:18:37.045Z,95.10
2018-12-24T07:21:03.418Z,95.20
2018-12-24T07:23:29.829Z,95.30
2018-12-24T07:25:56.243Z,94.80
2018-12-24T07:28:22.689Z,95.10
2018-12-24T07:30:49.089Z,95.30
2018-12-24T07:33:15.461Z,94.80
2018-12-24T07:35:41.857Z,94.80
2018-12-24T07:38:08.236Z,94.90
2018-12-24T07:40:34.872Z,94.80
2018-12-24T07:43:01.253Z,95.10
2018-12-24T07:45:27.714Z,95.20
2018-12-24T07:47:54.191Z,94.50
2018-12-24T07:50:20.700Z,94.60
2018-12-24T07:52:47.082Z,94.60
2018-12-24T07:55:13.457Z,94.30
2018-12-24T07:57:39.852Z,94.60
2018-12-24T08:00:06.327Z,94.30
2018-12-24T08:02:32.908Z,94.00
2018-12-24T08:04:59.458Z,94.10
2018-12-24T08:07:25.865Z,94.00
2018-12-24T08:09:52.269Z,93.90
2018-12-24T08:12:18.672Z,94.30
2018-12-24T08:14:45.053Z,94.20
2018-12-24T08:17:11.448Z,94.50
2018-12-24T08:19:37.848Z,94.60
2018-12-24T08:22:04.245Z,94.60
2018-12-24T08:24:30.645Z,94.60
2018-12-24T08:26:57.111Z,94.60
2018-12-24T08:29:23.492Z,94.60
2018-12-24T08:31:49.901Z,94.50
2018-12-24T08:34:16.268Z,94.60
2018-12-24T08:36:42.687Z,94.10
2018-12-24T08:39:09.067Z,93.90
2018-12-24T08:41:35.445Z,94.00
2018-12-24T08:44:01.848Z,94.20
2018-12-24T08:46:28.216Z,94.50
2018-12-24T08:48:54.615Z,94.50
2018-12-24T08:51:21.005Z,94.40
2018-12-24T08:53:47.384Z,94.40
2018-12-24T08:56:13.809Z,94.20
2018-12-24T08:58:40.184Z,94.30
2018-12-24T09:01:06.564Z,94.60
2018-12-24T09:03:32.973Z,94.40
2018-12-24T09:05:59.344Z,94.40
2018-12-24T09:08:25.772Z,94.40
2018-12-24T09:10:52.145Z,94.70
2018-12-24T09:13:18.616Z,94.70
2018-12-24T09:15:45.025Z,94.40
2018-12-24T09:18:11.409Z,94.00
2018-12-24T09:20:37.804Z,94.20
2018-12-24T09:23:04.193Z,94.00
2018-12-24T09:25:30.600Z,94.20
2018-12-24T09:27:56.977Z,94.50
2018-12-24T09:30:23.362Z,94.10
2018-12-24T09:32:49.765Z,93.70
2018-12-24T09:35:16.161Z,93.90
2018-12-24T09:37:42.538Z,93.60
2018-12-24T09:40:11.437Z,93.90
2018-12-24T09:42:37.816Z,93.80
2018-12-24T09:45:04.620Z,93.30
2018-12-24T09:47:30.994Z,93.00
2018-12-24T09:49:57.417Z,93.10
2018-12-24T09:52:23.820Z,93.20
2018-12-24T09:54:50.201Z,92.40
2018-12-24T09:57:16.600Z,92.80
2018-12-24T09:59:42.971Z,92.70
2018-12-24T10:02:09.358Z,93.00
2018-12-24T10:04:35.856Z,92.50
2018-12-24T10:07:04.825Z,92.70
2018-12-24T10:09:31.254Z,92.30
2018-12-24T10:11:57.644Z,92.20
2018-12-24T10:14:24.147Z,91.90
2018-12-24T10:16:50.652Z,91.90
2018-12-24T10:19:17.026Z,91.70
2018-12-24T10:21:43.419Z,91.80
2018-12-24T10:24:09.916Z,91.60
2018-12-24T10:26:36.411Z,91.50
2018-12-24T10:29:02.821Z,91.40
2018-12-24T10:31:29.212Z,91.50
2018-12-24T10:33:55.692Z,91.80
2018-12-24T10:36:22.209Z,91.50
2018-12-24T10:38:48.575Z,91.60
2018-12-24T10:41:15.065Z,91.10
2018-12-24T10:43:41.471Z,90.90
2018-12-24T10:46:07.966Z,90.70
2018-12-24T10:48:34.353Z,90.80
2018-12-24T10:51:00.779Z,90.70
2018-12-24T10:53:27.181Z,90.90
2018-12-24T10:55:53.578Z,90.40
2018-12-24T10:58:19.964Z,90.70
2018-12-24T11:00:46.377Z,91.20
2018-12-24T11:03:12.867Z,90.10
2018-12-24T11:05:39.272Z,90.00
2018-12-24T11:08:05.680Z,90.00
2018-12-24T11:10:32.180Z,90.20
2018-12-24T11:12:58.597Z,90.40
2018-12-24T11:16:02.976Z,90.40
2018-12-24T11:18:29.256Z,89.50
2018-12-24T11:20:55.512Z,90.30
2018-12-24T11:23:21.785Z,89.90
2018-12-24T11:25:48.159Z,90.40
2018-12-24T11:28:14.530Z,89.10
2018-12-24T11:30:40.901Z,88.70
2018-12-24T11:33:07.195Z,88.90
2018-12-24T11:35:33.444Z,88.50
2018-12-24T11:37:59.722Z,88.40
2018-12-24T11:40:25.987Z,89.00
2018-12-24T11:42:52.364Z,88.70
2018-12-24T11:45:18.668Z,87.80
2018-12-24T11:47:44.975Z,88.10
2018-12-24T11:50:11.241Z,87.80
2018-12-24T11:52:37.617Z,87.40
2018-12-24T11:55:04.106Z,87.80
2018-12-24T11:57:30.400Z,86.50
2018-12-24T11:59:56.747Z,87.60
2018-12-24T12:02:23.012Z,86.90
2018-12-24T12:04:49.294Z,86.50
2018-12-24T12:07:15.555Z,85.80
2018-12-24T12:09:41.945Z,85.80
2018-12-24T12:12:08.223Z,84.60
2018-12-24T12:14:34.583Z,86.90
2018-12-24T12:17:00.873Z,86.10
2018-12-24T12:19:47.025Z,87.00
2018-12-24T12:22:13.425Z,85.40
2018-12-24T12:24:39.711Z,85.30
2018-12-24T12:27:06.064Z,82.90
2018-12-24T12:29:32.328Z,83.00
2018-12-24T12:31:58.583Z,83.40
2018-12-24T12:34:24.849Z,82.40
2018-12-24T12:36:51.108Z,82.90
2018-12-24T12:39:17.530Z,83.90
2018-12-24T12:41:43.905Z,85.10
2018-12-24T12:44:10.283Z,85.10
2018-12-24T12:46:36.604Z,85.10
2018-12-24T12:49:02.860Z,84.80
2018-12-24T12:51:29.124Z,85.90
2018-12-24T12:53:55.442Z,85.10
2018-12-24T12:56:21.727Z,85.20
2018-12-24T12:58:48.042Z,84.90
2018-12-24T13:01:14.284Z,84.70
2018-12-24T13:03:40.676Z,85.30
2018-12-24T13:06:07.030Z,86.00
2018-12-24T13:08:33.313Z,85.90
2018-12-24T13:10:59.692Z,85.80
2018-12-24T13:13:26.025Z,86.30
2018-12-24T13:15:59.401Z,86.30
2018-12-24T13:18:20.361Z,85.40
2018-12-24T13:20:46.620Z,84.00
2018-12-24T13:23:12.867Z,83.60
2018-12-24T13:25:39.142Z,81.80
2018-12-24T13:28:05.502Z,81.90
2018-12-24T13:30:31.750Z,81.90
2018-12-24T13:32:58.041Z,81.80
2018-12-24T13:35:24.303Z,82.80
2018-12-24T13:37:50.651Z,82.80
2018-12-24T13:40:16.941Z,82.60
2018-12-24T13:42:43.216Z,82.20
2018-12-24T13:45:09.475Z,82.30
2018-12-24T13:47:35.802Z,82.10
2018-12-24T13:50:02.361Z,83.50
2018-12-24T13:52:28.659Z,85.80
2018-12-24T13:54:55.193Z,87.90
2018-12-24T13:57:21.713Z,88.00
2018-12-24T13:59:48.313Z,89.90
2018-12-24T14:02:16.451Z,90.00
2018-12-24T14:04:42.961Z,90.10
2018-12-24T14:07:09.265Z,90.70
2018-12-24T14:09:35.804Z,90.50
2018-12-24T14:12:02.256Z,91.00
2018-12-24T14:14:28.604Z,92.00
2018-12-24T14:16:54.877Z,91.90
2018-12-24T14:19:21.314Z,92.20
2018-12-24T14:21:47.676Z,92.40
2018-12-24T14:24:14.200Z,92.40
2018-12-24T14:26:40.992Z,92.70
2018-12-24T14:29:07.461Z,92.80
2018-12-24T14:31:33.753Z,92.70
2018-12-24T14:34:00.465Z,92.60
2018-12-24T14:36:26.755Z,92.90
2018-12-24T14:38:53.131Z,92.60
2018-12-24T14:41:19.417Z,92.90
2018-12-24T14:43:45.700Z,92.60
2018-12-24T14:46:12.061Z,92.70
2018-12-24T14:48:38.331Z,92.50
2018-12-24T14:51:04.621Z,91.90
2018-12-24T14:53:31.177Z,92.10
2018-12-24T14:55:57.452Z,92.10
2018-12-24T14:58:23.709Z,92.10
2018-12-24T15:00:50.079Z,91.70
2018-12-24T15:03:16.327Z,91.60
2018-12-24T15:05:42.594Z,91.60
2018-12-24T15:08:08.890Z,91.40
2018-12-24T15:10:35.259Z,91.60
2018-12-24T15:13:01.518Z,91.60
2018-12-24T15:15:27.901Z,91.20
2018-12-24T15:17:54.204Z,91.40
2018-12-24T15:20:20.455Z,91.20
2018-12-24T15:22:46.720Z,91.40
2018-12-24T15:25:13.010Z,91.40
2018-12-24T15:27:39.360Z,91.10
2018-12-24T15:30:05.812Z,90.90
2018-12-24T15:32:32.101Z,91.30
2018-12-24T15:34:58.388Z,91.20
2018-12-24T15:37:24.782Z,91.20
2018-12-24T15:39:51.035Z,91.00
2018-12-24T15:42:17.307Z,91.10
2018-12-24T15:44:43.577Z,90.80
2018-12-24T15:47:09.868Z,90.90
2018-12-24T15:49:36.150Z,90.60
2018-12-24T15:52:02.523Z,90.70
2018-12-24T15:54:28.803Z,91.10
2018-12-24T15:56:55.062Z,90.90
2018-12-24T15:59:21.345Z,90.30
2018-12-24T16:01:48.104Z,90.80
2018-12-24T16:04:14.450Z,90.60
2018-12-24T16:06:40.755Z,90.70
2018-12-24T16:09:07.050Z,91.00
2018-12-24T16:11:33.298Z,90.40
2018-12-24T16:13:59.699Z,90.50
2018-12-24T16:16:25.966Z,90.70
2018-12-24T16:18:52.256Z,90.60
2018-12-24T16:21:18.558Z,90.70
2018-12-24T16:23:44.973Z,90.50
2018-12-24T16:26:11.230Z,90.50
2018-12-24T16:28:37.551Z,90.60
2018-12-24T16:31:03.888Z,90.40
2018-12-24T16:33:30.703Z,90.50
2018-12-24T16:35:57.044Z,90.70
2018-12-24T16:38:23.420Z,90.30
2018-12-24T16:40:49.704Z,90.00
2018-12-24T16:43:15.962Z,89.00
2018-12-24T16:45:42.353Z,89.60
2018-12-24T16:48:08.672Z,90.20
2018-12-24T16:50:34.935Z,90.20
2018-12-24T16:53:01.403Z,89.80
2018-12-24T16:55:27.694Z,89.90
2018-12-24T16:57:54.049Z,90.20
2018-12-24T17:00:20.452Z,90.00
2018-12-24T17:02:46.871Z,90.00
2018-12-24T17:05:13.320Z,90.10
2018-12-24T17:07:39.688Z,90.20
2018-12-24T17:10:06.700Z,90.60
2018-12-24T17:12:32.958Z,91.00
2018-12-24T17:14:59.291Z,91.40
2018-12-24T17:17:25.620Z,91.20
2018-12-24T17:19:52.138Z,91.20
2018-12-24T17:22:18.379Z,90.80
2018-12-24T17:24:44.691Z,90.70
2018-12-24T17:27:10.956Z,90.70
2018-12-24T17:29:37.219Z,90.50
2018-12-24T17:32:03.668Z,90.50
2018-12-24T17:34:29.945Z,90.70
2018-12-24T17:36:56.446Z,90.50
2018-12-24T17:39:22.697Z,90.30
2018-12-24T17:41:49.613Z,90.50
2018-12-24T17:44:16.876Z,90.30
2018-12-24T17:46:43.132Z,90.00
2018-12-24T17:49:09.397Z,90.00
2018-12-24T17:51:35.892Z,90.00
2018-12-24T17:54:02.288Z,90.00
2018-12-24T17:56:28.550Z,90.40
2018-12-24T17:58:54.865Z,90.60
2018-12-24T18:01:21.128Z,90.50
2018-12-24T18:03:47.387Z,90.10
2018-12-24T18:06:13.728Z,90.50
2018-12-24T18:08:39.994Z,90.60
2018-12-24T18:11:06.325Z,90.70
2018-12-24T18:13:32.628Z,90.70
2018-12-24T18:15:58.892Z,91.20
2018-12-24T18:18:25.186Z,91.60
2018-12-24T18:20:51.605Z,91.90
2018-12-24T18:23:18.488Z,91.90
2018-12-24T18:25:44.769Z,92.20
2018-12-24T18:28:11.143Z,92.30
2018-12-24T18:30:37.550Z,92.30
2018-12-24T18:33:03.882Z,92.20
2018-12-24T18:35:30.235Z,92.10
2018-12-24T18:37:56.508Z,91.90
2018-12-24T18:40:22.869Z,91.80
2018-12-24T18:42:49.135Z,91.60
2018-12-24T18:45:15.678Z,91.60
2018-12-24T18:47:42.034Z,91.60
2018-12-24T18:50:08.338Z,91.70
2018-12-24T18:52:34.774Z,91.70
2018-12-24T18:55:01.044Z,91.80
2018-12-24T18:57:27.313Z,92.20
2018-12-24T18:59:53.592Z,91.80
2018-12-24T19:02:19.840Z,92.00
2018-12-24T19:04:46.238Z,92.20
2018-12-24T19:07:25.661Z,92.00
2018-12-24T19:09:52.062Z,91.80
2018-12-24T19:12:18.420Z,91.70
2018-12-24T19:14:44.673Z,91.80
2018-12-24T19:17:10.968Z,91.80
2018-12-24T19:19:37.239Z,91.90
2018-12-24T19:22:03.714Z,91.80
2018-12-24T19:24:30.012Z,91.80
2018-12-24T19:26:56.381Z,91.70
2018-12-24T19:29:22.661Z,91.60
2018-12-24T19:31:49.051Z,91.40
2018-12-24T19:34:15.333Z,91.50
2018-12-24T19:36:41.592Z,91.30
2018-12-24T19:39:07.913Z,91.60
2018-12-24T19:41:34.232Z,91.70
2018-12-24T19:44:00.519Z,91.90
2018-12-24T19:46:26.883Z,91.90
2018-12-24T19:48:53.156Z,91.70
2018-12-24T19:51:19.428Z,91.90
2018-12-24T19:53:45.815Z,91.70
2018-12-24T19:56:12.088Z,91.80
2018-12-24T19:58:38.467Z,91.90
2018-12-24T20:01:04.780Z,91.90
2018-12-24T20:03:31.070Z,92.00
2018-12-24T20:05:57.344Z,92.10
2018-12-24T20:08:23.645Z,91.90
2018-12-24T20:10:49.920Z,92.00
2018-12-24T20:13:16.319Z,91.80
2018-12-24T20:15:42.591Z,91.80
2018-12-24T20:18:08.860Z,92.10
2018-12-24T20:20:35.290Z,92.10
2018-12-24T20:23:01.550Z,92.10
2018-12-24T20:25:27.927Z,92.00
2018-12-24T20:27:54.172Z,91.90
2018-12-24T20:30:20.565Z,92.00
2018-12-24T20:32:46.812Z,92.00
2018-12-24T20:35:13.065Z,92.20
2018-12-24T20:37:39.362Z,91.70
2018-12-24T20:40:05.629Z,91.80
2018-12-24T20:42:31.880Z,91.80
2018-12-24T20:44:58.158Z,92.20
2018-12-24T20:47:24.436Z,92.60
2018-12-24T20:49:50.708Z,92.80
2018-12-24T20:52:16.986Z,92.90
2018-12-24T20:54:43.266Z,92.90
2018-12-24T20:57:09.684Z,92.60
2018-12-24T20:59:35.945Z,92.50
2018-12-24T21:02:02.396Z,92.60
2018-12-24T21:04:28.681Z,92.60
2018-12-24T21:06:54.986Z,92.60
2018-12-24T21:09:21.395Z,92.50
2018-12-24T21:11:47.650Z,92.50
2018-12-24T21:14:13.952Z,92.10
2018-12-24T21:16:40.207Z,92.20
2018-12-24T21:19:06.596Z,92.20
2018-12-24T21:21:32.942Z,92.40
2018-12-24T21:23:59.243Z,92.40
2018-12-24T21:26:25.517Z,92.40
2018-12-24T21:28:51.787Z,92.20
2018-12-24T21:31:18.177Z,92.40
2018-12-24T21:33:47.742Z,92.50
2018-12-24T21:36:14.129Z,92.50
2018-12-24T21:38:40.413Z,92.50
2018-12-24T21:41:06.674Z,92.70
2018-12-24T21:43:32.956Z,92.80
2018-12-24T21:45:59.238Z,93.00
2018-12-24T21:48:25.519Z,92.80
2018-12-24T21:50:51.776Z,93.00
2018-12-24T21:53:18.077Z,92.80
2018-12-24T21:55:44.352Z,92.80
2018-12-24T21:58:10.725Z,93.00
2018-12-24T22:00:37.004Z,92.90
2018-12-24T22:03:03.304Z,92.80
2018-12-24T22:05:29.595Z,92.70
2018-12-24T22:07:56.053Z,92.70
2018-12-24T22:10:22.288Z,93.20
2018-12-24T22:12:48.541Z,93.10
2018-12-24T22:15:14.823Z,92.80
2018-12-24T22:17:41.094Z,92.70
2018-12-24T22:20:07.440Z,92.60
2018-12-24T22:22:33.728Z,92.30
2018-12-24T22:25:00.089Z,92.10
2018-12-24T22:27:26.337Z,92.00
2018-12-24T22:29:52.653Z,92.20
2018-12-24T22:32:18.951Z,92.40
2018-12-24T22:34:45.225Z,92.10
2018-12-24T22:37:11.501Z,91.40
2018-12-24T22:39:37.760Z,91.50
2018-12-24T22:42:04.048Z,91.30
2018-12-24T22:44:30.320Z,91.50
2018-12-24T22:46:56.599Z,91.60
2018-12-24T22:49:22.888Z,91.10
2018-12-24T22:51:49.144Z,91.00
2018-12-24T22:54:15.536Z,91.40
2018-12-24T22:56:42.351Z,91.60
2018-12-24T22:59:08.658Z,91.50
2018-12-24T23:01:34.951Z,91.50
2018-12-24T23:04:01.324Z,91.50
2018-12-24T23:06:27.612Z,91.10
2018-12-24T23:08:54.318Z,90.90
2018-12-24T23:11:20.579Z,90.40
2018-12-24T23:13:46.847Z,90.20
2018-12-24T23:16:13.097Z,90.60
2018-12-24T23:18:39.477Z,90.60
2018-12-24T23:21:05.739Z,90.20
2018-12-24T23:23:32.108Z,90.40
2018-12-24T23:25:58.407Z,90.50
2018-12-24T23:28:24.778Z,90.50
2018-12-24T23:30:51.060Z,90.60
2018-12-24T23:33:17.351Z,90.70
2018-12-24T23:35:43.714Z,90.40
2018-12-24T23:38:09.959Z,90.00
2018-12-24T23:40:36.245Z,90.00
2018-12-24T23:43:02.709Z,90.00
2018-12-24T23:45:29.015Z,90.10
2018-12-24T23:47:55.289Z,89.30
2018-12-24T23:50:21.676Z,89.50
2018-12-24T23:52:47.945Z,88.90
2018-12-24T23:55:14.213Z,88.50
2018-12-24T23:57:40.476Z,87.90
